Time;durP1;ratioP1;P1;durP2;ratioP2;P2;SDS_P1;SDS_P2;PMS_P1;PMS_P2;Temp;Humidity;BMP_temperature;BMP_pressure;BME280_temperature;BME280_humidity;BME280_pressure;Samples;Min_cycle;Max_cycle;Signal;HPM_P1;HPM_P2
2022/05/10 00:01:42;;;;;;;10.93;6.18;;;;;;;;;;5052239;28;20033;-65
2022/05/10 00:04:09;;;;;;;15.88;6.90;;;;;;;;;;5051000;28;20056;-65
2022/05/10 00:06:38;;;;;;;10.20;6.20;;;;;;;;;;5052278;28;20033;-65
2022/05/10 00:09:05;;;;;;;11.63;6.93;;;;;;;;;;5052256;28;20040;-65
2022/05/10 00:11:31;;;;;;;13.57;7.30;;;;;;;;;;5052582;28;20033;-64
2022/05/10 00:13:57;;;;;;;12.38;6.28;;;;;;;;;;5052371;28;20039;-66
2022/05/10 00:16:23;;;;;;;13.85;7.00;;;;;;;;;;5052402;28;20052;-66
2022/05/10 00:18:49;;;;;;;12.52;7.15;;;;;;;;;;5052290;28;20025;-66
2022/05/10 00:21:17;;;;;;;13.70;6.78;;;;;;;;;;5051951;28;20048;-66
2022/05/10 00:23:43;;;;;;;11.20;6.20;;;;;;;;;;5052327;28;20095;-65
2022/05/10 00:26:09;;;;;;;12.55;6.95;;;;;;;;;;5052115;28;20017;-65
2022/05/10 00:28:35;;;;;;;15.75;7.18;;;;;;;;;;5052233;28;20064;-66
2022/05/10 00:31:01;;;;;;;13.95;6.90;;;;;;;;;;5052019;28;20384;-66
2022/05/10 00:33:28;;;;;;;12.77;7.10;;;;;;;;;;5051973;28;20021;-65
2022/05/10 00:35:55;;;;;;;13.02;7.47;;;;;;;;;;5051796;28;20027;-65
2022/05/10 00:38:22;;;;;;;12.63;6.90;;;;;;;;;;5051754;28;20087;-66
2022/05/10 00:40:49;;;;;;;11.60;7.43;;;;;;;;;;5051923;28;20037;-65
2022/05/10 00:43:19;;;;;;;13.60;7.20;;;;;;;;;;5051801;28;20053;-66
2022/05/10 00:45:45;;;;;;;11.35;7.22;;;;;;;;;;5051131;28;20033;-65
2022/05/10 00:48:28;;;;;;;10.55;6.70;;;;;;;;;;5051666;28;20546;-65
2022/05/10 00:51:20;;;;;;;10.60;6.80;;;;;;;;;;5052070;28;20024;-65
2022/05/10 04:57:30;;;;;;;13.05;8.13;;;;;;;;;;4903473;23;20509;-67
2022/05/10 04:59:56;;;;;;;12.52;9.07;;;;;;;;;;4877745;29;20072;-65
2022/05/10 05:02:23;;;;;;;10.18;7.13;;;;;;;;;;4877883;29;20029;-64
2022/05/10 05:04:49;;;;;;;11.40;7.10;;;;;;;;;;4877889;29;20120;-64
2022/05/10 05:07:15;;;;;;;9.88;6.88;;;;;;;;;;4877612;29;20061;-64
2022/05/10 05:09:41;;;;;;;13.18;7.28;;;;;;;;;;4895883;29;20032;-64
2022/05/10 05:12:07;;;;;;;12.02;7.13;;;;;;;;;;4896038;29;20036;-63
2022/05/10 05:14:33;;;;;;;12.48;7.28;;;;;;;;;;4896267;29;20028;-65
2022/05/10 05:16:59;;;;;;;10.20;7.00;;;;;;;;;;4896259;29;20045;-66
2022/05/10 05:19:26;;;;;;;12.38;7.10;;;;;;;;;;4895915;29;20369;-64
2022/05/10 05:21:52;;;;;;;10.98;7.20;;;;;;;;;;4895850;29;20037;-63
2022/05/10 05:24:18;;;;;;;12.43;7.32;;;;;;;;;;4895463;29;20032;-64
2022/05/10 05:26:46;;;;;;;14.18;7.78;;;;;;;;;;4895568;29;20037;-64
2022/05/10 05:29:12;;;;;;;12.82;8.52;;;;;;;;;;4895709;29;20060;-64
2022/05/10 05:31:39;;;;;;;20.52;7.28;;;;;;;;;;4895546;29;20433;-64
2022/05/10 05:34:05;;;;;;;12.98;8.55;;;;;;;;;;4895823;29;20024;-64
2022/05/10 05:36:31;;;;;;;13.45;8.50;;;;;;;;;;4895642;29;20040;-64
2022/05/10 05:38:57;;;;;;;17.45;7.40;;;;;;;;;;4895952;29;20621;-65
2022/05/10 05:41:24;;;;;;;14.50;8.63;;;;;;;;;;4890020;29;20059;-65
2022/05/10 05:43:50;;;;;;;16.20;9.27;;;;;;;;;;4895919;29;20085;-65
2022/05/10 05:46:16;;;;;;;14.98;9.25;;;;;;;;;;4896000;29;20033;-64
2022/05/10 05:48:42;;;;;;;13.95;9.77;;;;;;;;;;4894315;29;20111;-65
2022/05/10 05:51:08;;;;;;;12.93;8.55;;;;;;;;;;4876922;29;20100;-65
2022/05/10 05:53:34;;;;;;;15.45;9.40;;;;;;;;;;4876902;29;20085;-64
2022/05/10 05:56:01;;;;;;;13.20;9.10;;;;;;;;;;4870217;29;20144;-64
2022/05/10 05:58:27;;;;;;;15.88;9.25;;;;;;;;;;4858493;29;20048;-63
2022/05/10 06:00:53;;;;;;;14.50;8.70;;;;;;;;;;4858226;29;20037;-65
2022/05/10 06:03:19;;;;;;;18.98;9.43;;;;;;;;;;4858539;29;20030;-65
2022/05/10 06:05:45;;;;;;;13.23;8.27;;;;;;;;;;4858644;29;20062;-65
2022/05/10 06:08:11;;;;;;;14.68;9.55;;;;;;;;;;4858467;29;20112;-64
2022/05/10 06:10:38;;;;;;;12.50;6.35;;;;;;;;;;4858253;29;20037;-65
2022/05/10 06:13:04;;;;;;;14.82;9.05;;;;;;;;;;4858309;29;20029;-64
2022/05/10 06:15:30;;;;;;;14.98;9.10;;;;;;;;;;4858175;29;20049;-65
2022/05/10 06:17:57;;;;;;;18.02;9.20;;;;;;;;;;4857784;29;20033;-65
2022/05/10 06:20:24;;;;;;;14.68;9.27;;;;;;;;;;4858281;29;20489;-64
2022/05/10 06:22:50;;;;;;;13.27;8.75;;;;;;;;;;4857699;29;20021;-65
2022/05/10 06:25:18;;;;;;;15.60;9.52;;;;;;;;;;4857720;29;20033;-62
2022/05/10 06:27:44;;;;;;;14.13;9.60;;;;;;;;;;4858238;29;20033;-62
2022/05/10 06:30:11;;;;;;;15.75;9.30;;;;;;;;;;4858106;29;20037;-64
2022/05/10 06:32:37;;;;;;;14.50;9.27;;;;;;;;;;4857861;29;20030;-63
2022/05/10 06:35:04;;;;;;;18.15;9.75;;;;;;;;;;4858176;29;20030;-64
2022/05/10 06:40:16;;;;;;;16.27;9.50;;;;;;;;;;4855857;29;20109;-64
2022/05/10 06:42:42;;;;;;;13.90;9.15;;;;;;;;;;4857913;29;20035;-64
2022/05/10 06:45:10;;;;;;;17.70;9.57;;;;;;;;;;4860449;29;20033;-62
2022/05/10 06:47:40;;;;;;;13.73;9.73;;;;;;;;;;4860624;29;20140;-63
2022/05/10 06:50:08;;;;;;;12.40;9.00;;;;;;;;;;4860319;29;20034;-64
2022/05/10 06:52:34;;;;;;;12.57;8.73;;;;;;;;;;4860798;29;20065;-64
2022/05/10 06:55:00;;;;;;;13.15;8.90;;;;;;;;;;4860376;29;20026;-63
2022/05/10 06:57:26;;;;;;;17.60;9.90;;;;;;;;;;4860339;29;20081;-63
2022/05/10 06:59:54;;;;;;;12.90;9.00;;;;;;;;;;4860133;29;20037;-64
2022/05/10 07:02:20;;;;;;;15.30;8.98;;;;;;;;;;4860249;29;20025;-63
2022/05/10 07:04:46;;;;;;;12.85;9.40;;;;;;;;;;4860185;29;20030;-64
2022/05/10 07:07:12;;;;;;;13.68;8.95;;;;;;;;;;4860260;29;20041;-63
2022/05/10 07:09:38;;;;;;;16.20;9.50;;;;;;;;;;4860244;29;20474;-63
2022/05/10 07:12:04;;;;;;;15.65;9.63;;;;;;;;;;4860321;29;20478;-63
2022/05/10 07:14:31;;;;;;;13.00;8.65;;;;;;;;;;4860247;29;20040;-64
2022/05/10 07:16:57;;;;;;;17.00;9.05;;;;;;;;;;4860778;29;20098;-65
2022/05/10 07:19:23;;;;;;;20.00;9.05;;;;;;;;;;4861123;29;20057;-67
2022/05/10 07:21:49;;;;;;;12.73;9.48;;;;;;;;;;4860816;29;20037;-63
2022/05/10 07:24:19;;;;;;;18.23;9.77;;;;;;;;;;4860651;29;20033;-63
2022/05/10 07:26:45;;;;;;;16.98;10.45;;;;;;;;;;4860578;29;20038;-63
2022/05/10 07:29:12;;;;;;;15.82;9.13;;;;;;;;;;4860605;29;20052;-63
2022/05/10 07:31:38;;;;;;;15.25;8.90;;;;;;;;;;4860119;29;20599;-63
2022/05/10 07:34:04;;;;;;;18.45;9.50;;;;;;;;;;4860486;29;20041;-63
2022/05/10 07:36:33;;;;;;;13.48;8.45;;;;;;;;;;4860608;29;20040;-63
2022/05/10 07:39:04;;;;;;;16.48;8.32;;;;;;;;;;4843532;29;20471;-63
2022/05/10 07:41:30;;;;;;;19.45;8.48;;;;;;;;;;4860355;29;20033;-63
2022/05/10 07:43:56;;;;;;;15.63;9.07;;;;;;;;;;4860380;29;20057;-63
2022/05/10 07:46:23;;;;;;;12.50;9.10;;;;;;;;;;4860234;29;20136;-63
2022/05/10 07:48:49;;;;;;;13.55;8.60;;;;;;;;;;4860396;29;20034;-63
2022/05/10 07:51:15;;;;;;;15.93;8.68;;;;;;;;;;4860396;29;20030;-63
2022/05/10 07:53:42;;;;;;;13.20;9.02;;;;;;;;;;4860072;29;20030;-63
2022/05/10 07:56:08;;;;;;;16.00;9.10;;;;;;;;;;4859857;29;20056;-63
2022/05/10 07:58:35;;;;;;;17.20;9.07;;;;;;;;;;4860335;29;20422;-63
2022/05/10 08:01:01;;;;;;;14.85;9.40;;;;;;;;;;4859954;29;20045;-63
2022/05/10 08:03:28;;;;;;;12.13;8.30;;;;;;;;;;4860025;29;20064;-64
2022/05/10 08:05:55;;;;;;;15.70;8.90;;;;;;;;;;4859933;29;20033;-64
2022/05/10 08:08:21;;;;;;;15.85;10.02;;;;;;;;;;4859791;29;20105;-63
2022/05/10 08:10:48;;;;;;;14.95;9.60;;;;;;;;;;4859390;29;20061;-64
2022/05/10 08:13:15;;;;;;;13.88;8.95;;;;;;;;;;4859718;29;20038;-63
2022/05/10 08:15:42;;;;;;;16.00;8.77;;;;;;;;;;4860104;29;20030;-63
2022/05/10 08:18:08;;;;;;;14.07;9.13;;;;;;;;;;4859868;29;20052;-63
2022/05/10 08:20:35;;;;;;;13.95;9.73;;;;;;;;;;4859561;29;20139;-63
2022/05/10 08:23:01;;;;;;;15.57;9.52;;;;;;;;;;4859846;29;20081;-63
2022/05/10 08:25:27;;;;;;;14.30;8.27;;;;;;;;;;4859576;29;20056;-63
2022/05/10 08:27:53;;;;;;;12.00;7.57;;;;;;;;;;4859641;29;20040;-63
2022/05/10 08:30:20;;;;;;;14.82;8.63;;;;;;;;;;4859249;29;20068;-63
2022/05/10 08:32:46;;;;;;;11.75;6.47;;;;;;;;;;4859715;29;20029;-63
2022/05/10 08:35:12;;;;;;;9.38;6.15;;;;;;;;;;4859491;29;20042;-63
2022/05/10 08:37:38;;;;;;;9.55;5.90;;;;;;;;;;4858806;29;20064;-63
2022/05/10 08:40:08;;;;;;;11.77;5.50;;;;;;;;;;4858926;29;20045;-62
2022/05/10 08:42:34;;;;;;;13.02;5.80;;;;;;;;;;4859097;29;20048;-63
2022/05/10 08:45:02;;;;;;;13.27;6.85;;;;;;;;;;4859189;29;20474;-63
2022/05/10 08:47:28;;;;;;;10.07;6.38;;;;;;;;;;4859088;29;20044;-63
2022/05/10 08:49:58;;;;;;;12.98;6.72;;;;;;;;;;4859260;29;20047;-63
2022/05/10 08:52:28;;;;;;;8.55;5.53;;;;;;;;;;4859279;29;20116;-63
2022/05/10 08:54:54;;;;;;;12.95;6.38;;;;;;;;;;4859347;29;20692;-63
2022/05/10 08:57:28;;;;;;;14.43;8.95;;;;;;;;;;4858442;29;20049;-63
2022/05/10 09:00:05;;;;;;;15.75;7.93;;;;;;;;;;4858664;29;20108;-63
2022/05/10 09:02:46;;;;;;;11.45;7.80;;;;;;;;;;4859154;29;20041;-62
2022/05/10 09:05:19;;;;;;;14.38;8.55;;;;;;;;;;4858476;29;20474;-62
2022/05/10 09:07:51;;;;;;;10.68;6.53;;;;;;;;;;4858591;29;20522;-63
2022/05/10 09:10:20;;;;;;;22.02;10.05;;;;;;;;;;4859057;29;20065;-62
2022/05/10 09:13:06;;;;;;;12.50;7.55;;;;;;;;;;4858940;29;20025;-62
2022/05/10 09:15:38;;;;;;;23.00;10.77;;;;;;;;;;4859035;29;20077;-63
2022/05/10 09:18:15;;;;;;;19.65;10.05;;;;;;;;;;4859039;29;20061;-63
2022/05/10 09:20:45;;;;;;;17.80;10.13;;;;;;;;;;4858935;29;20049;-63
2022/05/10 09:23:19;;;;;;;16.02;10.73;;;;;;;;;;4858956;29;20025;-62
2022/05/10 09:25:45;;;;;;;21.60;10.75;;;;;;;;;;4859151;29;20950;-63
2022/05/10 09:28:14;;;;;;;19.17;11.00;;;;;;;;;;4858814;29;20483;-62
2022/05/10 09:34:45;;;;;;;19.23;10.90;;;;;;;;;;4858746;29;20037;-63
2022/05/10 09:36:11;;;;;;;20.25;10.90;;;;;;;;;;4858743;29;20116;-63
2022/05/10 09:38:47;;;;;;;17.30;9.48;;;;;;;;;;4858645;29;20053;-62
2022/05/10 09:41:25;;;;;;;16.08;11.07;;;;;;;;;;4858485;29;20073;-62
2022/05/10 09:43:53;;;;;;;19.65;10.45;;;;;;;;;;4858533;29;20494;-62
2022/05/10 09:46:24;;;;;;;18.83;9.60;;;;;;;;;;4858852;29;20089;-62
2022/05/10 09:48:50;;;;;;;12.13;7.43;;;;;;;;;;4858626;29;20021;-62
2022/05/10 09:51:36;;;;;;;16.50;9.90;;;;;;;;;;4858563;29;20056;-65
2022/05/10 09:54:22;;;;;;;19.25;10.40;;;;;;;;;;4858035;29;20025;-63
2022/05/10 09:56:55;;;;;;;15.65;9.82;;;;;;;;;;4868449;29;20049;-62
2022/05/10 09:59:21;;;;;;;19.65;10.90;;;;;;;;;;4875988;29;20046;-63
2022/05/10 10:01:54;;;;;;;17.42;11.82;;;;;;;;;;4876522;29;20045;-63
2022/05/10 10:04:22;;;;;;;21.30;11.30;;;;;;;;;;4876642;29;20032;-63
2022/05/10 10:07:18;;;;;;;18.13;10.25;;;;;;;;;;4874202;29;20110;-63
2022/05/10 10:09:45;;;;;;;20.92;8.40;;;;;;;;;;4799330;29;20055;-62
2022/05/10 10:12:17;;;;;;;16.60;9.55;;;;;;;;;;4801219;29;20027;-62
2022/05/10 10:14:47;;;;;;;17.75;10.45;;;;;;;;;;4801209;29;20062;-62
2022/05/10 10:17:22;;;;;;;14.65;9.57;;;;;;;;;;4802340;29;20031;-63
2022/05/10 10:19:53;;;;;;;18.27;9.70;;;;;;;;;;4804360;29;20051;-62
2022/05/10 10:22:19;;;;;;;15.50;9.80;;;;;;;;;;4804127;29;20038;-62
2022/05/10 10:24:48;;;;;;;13.95;9.93;;;;;;;;;;4803531;29;20113;-62
2022/05/10 10:27:17;;;;;;;19.58;10.15;;;;;;;;;;4803397;29;20136;-63
2022/05/10 10:29:49;;;;;;;13.55;8.88;;;;;;;;;;4802603;29;20046;-62
2022/05/10 10:32:21;;;;;;;16.17;11.75;;;;;;;;;;4803267;29;20403;-62
2022/05/10 10:34:51;;;;;;;16.98;9.23;;;;;;;;;;4803020;29;20697;-65
2022/05/10 10:37:21;;;;;;;14.85;8.73;;;;;;;;;;4803624;29;20492;-62
2022/05/10 10:40:04;;;;;;;15.15;8.45;;;;;;;;;;4802799;29;20088;-62
2022/05/10 10:42:36;;;;;;;17.25;8.63;;;;;;;;;;4804046;29;20499;-63
2022/05/10 10:45:04;;;;;;;14.63;8.52;;;;;;;;;;4807804;29;20039;-62
2022/05/10 10:47:30;;;;;;;13.70;9.25;;;;;;;;;;4879701;29;20108;-62
2022/05/10 10:49:57;;;;;;;13.20;8.95;;;;;;;;;;4879960;29;20036;-62
2022/05/10 10:52:23;;;;;;;17.08;8.55;;;;;;;;;;4879734;29;20112;-62
2022/05/10 10:54:49;;;;;;;19.52;11.00;;;;;;;;;;4878929;29;20283;-62
2022/05/10 10:57:16;;;;;;;16.33;9.98;;;;;;;;;;4878583;29;20556;-63
2022/05/10 10:59:48;;;;;;;16.48;8.52;;;;;;;;;;4878929;29;20068;-61
2022/05/10 11:02:23;;;;;;;16.75;11.10;;;;;;;;;;4879639;29;20040;-62
2022/05/10 11:05:09;;;;;;;15.15;8.52;;;;;;;;;;4879510;29;20033;-63
2022/05/10 11:07:41;;;;;;;15.25;8.82;;;;;;;;;;4879018;29;20037;-62
2022/05/10 11:10:10;;;;;;;18.02;9.25;;;;;;;;;;4879365;29;20044;-62
2022/05/10 11:12:36;;;;;;;12.10;8.88;;;;;;;;;;4879036;29;20116;-61
2022/05/10 11:15:02;;;;;;;10.38;8.38;;;;;;;;;;4878467;29;20120;-61
2022/05/10 11:17:34;;;;;;;11.85;8.23;;;;;;;;;;4878663;29;20108;-61
2022/05/10 11:20:00;;;;;;;;;;;;;;;;;;4879036;29;20041;-63
2022/05/10 11:22:26;;;;;;;15.02;8.55;;;;;;;;;;4879075;29;19912;-62
2022/05/10 11:25:08;;;;;;;11.65;8.07;;;;;;;;;;4878450;29;20113;-63
2022/05/10 11:27:52;;;;;;;12.63;8.48;;;;;;;;;;4878473;29;20196;-62
2022/05/10 11:30:18;;;;;;;10.73;6.43;;;;;;;;;;4878088;29;20045;-62
2022/05/10 11:32:44;;;;;;;16.60;9.05;;;;;;;;;;4877212;29;20505;-63
2022/05/10 11:35:16;;;;;;;12.25;8.05;;;;;;;;;;4877901;29;20029;-62
2022/05/10 11:37:42;;;;;;;;;;;;;;;;;;4879259;29;20092;-62
2022/05/10 11:40:11;;;;;;;11.93;7.07;;;;;;;;;;4878797;29;19916;-62
2022/05/10 11:42:37;;;;;;;11.57;6.60;;;;;;;;;;4876919;29;20143;-62
2022/05/10 11:45:22;;;;;;;10.80;6.20;;;;;;;;;;4878626;29;20446;-63
2022/05/10 11:48:00;;;;;;;8.50;6.40;;;;;;;;;;4878814;29;20065;-62
2022/05/10 11:50:26;;;;;;;12.48;5.90;;;;;;;;;;4879029;29;20057;-62
2022/05/10 11:53:11;;;;;;;8.52;5.30;;;;;;;;;;4878628;29;20480;-62
2022/05/10 11:55:50;;;;;;;10.88;6.40;;;;;;;;;;4878472;29;20493;-63
2022/05/10 11:58:16;;;;;;;9.63;6.70;;;;;;;;;;4878821;29;20033;-63
2022/05/10 12:00:50;;;;;;;12.20;6.47;;;;;;;;;;4878721;29;20378;-63
2022/05/10 12:03:35;;;;;;;10.63;7.20;;;;;;;;;;4878844;29;20113;-63
2022/05/10 12:06:19;;;;;;;9.63;6.70;;;;;;;;;;4878782;29;20058;-63
2022/05/10 12:08:45;;;;;;;10.57;6.50;;;;;;;;;;4878612;29;20429;-63
2022/05/10 12:11:37;;;;;;;8.30;5.85;;;;;;;;;;4878667;29;20025;-62
2022/05/10 12:22:59;;;;;;;11.30;5.45;;;;;;;;;;4878249;29;20460;-63
2022/05/10 12:25:44;;;;;;;6.97;4.85;;;;;;;;;;4892296;29;20480;-63
2022/05/10 12:28:10;;;;;;;9.43;5.80;;;;;;;;;;4878313;29;20048;-63
2022/05/10 12:30:37;;;;;;;12.82;6.78;;;;;;;;;;4878401;29;20035;-64
2022/05/10 12:33:21;;;;;;;9.73;6.85;;;;;;;;;;4878242;29;20085;-62
2022/05/10 12:35:50;;;;;;;9.25;6.18;;;;;;;;;;4878328;29;20124;-63
2022/05/10 12:38:35;;;;;;;8.93;5.90;;;;;;;;;;4878037;29;20032;-63
2022/05/10 12:41:05;;;;;;;9.18;5.97;;;;;;;;;;4877075;29;20725;-63
2022/05/10 12:43:43;;;;;;;8.18;4.97;;;;;;;;;;4878038;29;20035;-63
2022/05/10 12:46:12;;;;;;;10.30;4.68;;;;;;;;;;4878317;29;20041;-62
2022/05/10 12:48:43;;;;;;;6.47;3.53;;;;;;;;;;4878036;29;20033;-62
2022/05/10 12:51:27;;;;;;;5.97;2.80;;;;;;;;;;4877950;29;20107;-63
2022/05/10 12:54:13;;;;;;;8.02;3.92;;;;;;;;;;4877702;29;20252;-62
2022/05/10 12:56:42;;;;;;;6.03;3.30;;;;;;;;;;4877053;29;20048;-65
2022/05/10 12:59:21;;;;;;;7.50;3.40;;;;;;;;;;4877480;29;20080;-61
2022/05/10 13:01:47;;;;;;;7.78;3.90;;;;;;;;;;4877327;29;20105;-61
2022/05/10 13:04:21;;;;;;;6.60;3.45;;;;;;;;;;4877831;29;20033;-62
2022/05/10 13:07:06;;;;;;;7.32;3.78;;;;;;;;;;4877769;29;20041;-62
2022/05/10 13:09:34;;;;;;;7.45;3.70;;;;;;;;;;4891540;29;20025;-64
2022/05/10 13:12:12;;;;;;;7.35;4.85;;;;;;;;;;4877422;29;20033;-62
2022/05/10 13:14:45;;;;;;;10.93;5.30;;;;;;;;;;4877404;29;20516;-62
2022/05/10 13:17:13;;;;;;;6.93;5.25;;;;;;;;;;4877269;29;20036;-62
2022/05/10 13:19:41;;;;;;;10.10;5.22;;;;;;;;;;4891419;29;20061;-64
2022/05/10 13:22:10;;;;;;;9.77;5.38;;;;;;;;;;4867840;29;20495;-62
2022/05/10 13:24:36;;;;;;;8.00;5.03;;;;;;;;;;4858697;29;20061;-62
2022/05/10 13:27:03;;;;;;;7.28;5.05;;;;;;;;;;4866960;29;20029;-62
2022/05/10 13:29:36;;;;;;;9.43;5.13;;;;;;;;;;4867467;29;20068;-61
2022/05/10 13:32:03;;;;;;;9.25;4.57;;;;;;;;;;4865863;29;20047;-61
2022/05/10 13:34:29;;;;;;;8.05;4.22;;;;;;;;;;4866179;29;20411;-62
2022/05/10 13:36:55;;;;;;;8.85;4.35;;;;;;;;;;4867605;29;20372;-62
2022/05/10 13:39:25;;;;;;;7.93;4.70;;;;;;;;;;4873443;29;20029;-62
2022/05/10 13:41:56;;;;;;;9.52;4.53;;;;;;;;;;4859109;29;20517;-62
2022/05/10 13:44:23;;;;;;;9.10;4.65;;;;;;;;;;4874994;29;20100;-61
2022/05/10 13:46:57;;;;;;;10.30;5.18;;;;;;;;;;4877259;29;20112;-61
2022/05/10 13:49:24;;;;;;;10.10;5.53;;;;;;;;;;4877817;29;20032;-61
2022/05/10 13:51:52;;;;;;;10.88;4.85;;;;;;;;;;4877513;29;20033;-63
2022/05/10 13:54:27;;;;;;;11.00;6.15;;;;;;;;;;4876827;29;20065;-62
2022/05/10 13:56:53;;;;;;;9.25;6.07;;;;;;;;;;4873676;29;20049;-61
2022/05/10 13:59:31;;;;;;;8.32;4.93;;;;;;;;;;4875746;29;20067;-61
2022/05/10 14:02:02;;;;;;;10.07;5.88;;;;;;;;;;4874671;29;20049;-64
2022/05/10 14:04:29;;;;;;;7.35;5.10;;;;;;;;;;4875947;29;20025;-62
2022/05/10 14:06:57;;;;;;;10.10;5.22;;;;;;;;;;4875999;29;20040;-61
2022/05/10 14:09:24;;;;;;;9.63;5.28;;;;;;;;;;4877185;29;20032;-62
2022/05/10 14:11:51;;;;;;;8.43;5.20;;;;;;;;;;4876301;29;20439;-61
2022/05/10 14:14:20;;;;;;;10.00;4.97;;;;;;;;;;4875459;29;20037;-61
2022/05/10 14:16:47;;;;;;;7.38;4.35;;;;;;;;;;4876663;29;20108;-63
2022/05/10 14:19:34;;;;;;;10.95;4.20;;;;;;;;;;4876678;29;20029;-62
2022/05/10 14:22:03;;;;;;;9.23;4.53;;;;;;;;;;4876201;29;20048;-61
2022/05/10 14:24:30;;;;;;;9.38;4.97;;;;;;;;;;4876611;29;20029;-62
2022/05/10 14:27:05;;;;;;;8.07;4.20;;;;;;;;;;4876187;29;20037;-61
2022/05/10 14:29:34;;;;;;;7.03;3.95;;;;;;;;;;4876187;29;20040;-61
2022/05/10 14:32:00;;;;;;;7.32;3.60;;;;;;;;;;4875981;29;20068;-60
2022/05/10 14:34:45;;;;;;;7.63;4.82;;;;;;;;;;4876957;29;20028;-62
2022/05/10 14:37:16;;;;;;;10.35;4.45;;;;;;;;;;4876450;29;20033;-61
2022/05/10 14:39:42;;;;;;;7.75;3.53;;;;;;;;;;4876590;29;20025;-63
2022/05/10 14:42:29;;;;;;;7.38;3.38;;;;;;;;;;4876604;29;20800;-63
2022/05/10 14:45:11;;;;;;;5.65;3.25;;;;;;;;;;4876684;29;20155;-62
2022/05/10 14:47:37;;;;;;;7.75;3.50;;;;;;;;;;4876301;29;20037;-62
2022/05/10 14:50:05;;;;;;;4.85;2.97;;;;;;;;;;4870932;29;20037;-61
2022/05/10 14:52:34;;;;;;;5.70;2.97;;;;;;;;;;4857849;29;20034;-62
2022/05/10 14:55:01;;;;;;;3.95;2.75;;;;;;;;;;4857754;29;20106;-62
2022/05/10 14:57:41;;;;;;;4.28;2.72;;;;;;;;;;4857678;29;20057;-62
2022/05/10 15:00:32;;;;;;;8.20;3.40;;;;;;;;;;4857837;29;20053;-65
2022/05/10 15:03:09;;;;;;;4.53;3.05;;;;;;;;;;4857849;29;20029;-63
2022/05/10 15:05:39;;;;;;;7.47;3.75;;;;;;;;;;4861210;29;20137;-62
2022/05/10 15:08:05;;;;;;;8.25;3.22;;;;;;;;;;4861038;29;20029;-62
2022/05/10 15:10:31;;;;;;;6.40;3.78;;;;;;;;;;4861281;29;20041;-63
2022/05/10 15:13:03;;;;;;;16.95;3.53;;;;;;;;;;4861075;29;20104;-62
2022/05/10 15:15:29;;;;;;;;;;;;;;;;;;4867672;29;20335;-62
2022/05/10 15:20:40;;;;;;;8.68;3.13;;;;;;;;;;4869003;29;20540;-63
2022/05/10 15:23:06;;;;;;;7.00;3.22;;;;;;;;;;4868081;29;20024;-62
2022/05/10 15:25:32;;;;;;;9.63;4.85;;;;;;;;;;4860184;29;20120;-63
2022/05/10 15:27:59;;;;;;;9.20;4.13;;;;;;;;;;4867862;29;20044;-63
2022/05/10 15:30:25;;;;;;;14.93;10.52;;;;;;;;;;4877482;29;20025;-62
2022/05/10 15:32:51;;;;;;;6.53;4.10;;;;;;;;;;4863750;29;20037;-63
2022/05/10 15:35:17;;;;;;;9.70;3.90;;;;;;;;;;4860371;29;20388;-61
2022/05/10 15:37:45;;;;;;;8.65;3.17;;;;;;;;;;4860614;29;20063;-63
2022/05/10 15:40:12;;;;;;;7.20;3.28;;;;;;;;;;4860307;29;20402;-64
2022/05/10 15:42:38;;;;;;;6.43;3.60;;;;;;;;;;4860456;29;20051;-64
2022/05/10 15:45:05;;;;;;;6.18;3.30;;;;;;;;;;4860205;29;20086;-63
2022/05/10 15:47:34;;;;;;;8.70;3.72;;;;;;;;;;4860514;29;20065;-63
2022/05/10 15:50:00;;;;;;;10.48;4.72;;;;;;;;;;4875087;29;20453;-61
2022/05/10 15:52:27;;;;;;;7.60;3.75;;;;;;;;;;4878841;29;20135;-65
2022/05/10 15:54:54;;;;;;;9.98;3.63;;;;;;;;;;4878877;29;20034;-61
2022/05/10 15:57:23;;;;;;;8.10;3.60;;;;;;;;;;4878463;29;20440;-61
2022/05/10 15:59:49;;;;;;;21.48;11.07;;;;;;;;;;4878510;29;20032;-61
2022/05/10 16:02:16;;;;;;;14.35;7.03;;;;;;;;;;4878546;29;20032;-64
2022/05/10 16:04:42;;;;;;;9.70;5.35;;;;;;;;;;4878291;29;20037;-63
2022/05/10 16:07:08;;;;;;;9.38;4.82;;;;;;;;;;4861173;29;20094;-63
2022/05/10 16:09:35;;;;;;;9.35;3.60;;;;;;;;;;4859854;29;20026;-63
2022/05/10 16:12:03;;;;;;;8.93;3.65;;;;;;;;;;4859305;29;20037;-63
2022/05/10 16:14:29;;;;;;;7.13;3.53;;;;;;;;;;4859592;29;20029;-63
2022/05/10 16:16:55;;;;;;;8.30;3.65;;;;;;;;;;4859567;29;20035;-62
2022/05/10 16:19:21;;;;;;;7.43;3.53;;;;;;;;;;4860131;29;20029;-62
2022/05/10 16:21:47;;;;;;;8.95;3.53;;;;;;;;;;4859992;29;20798;-62
2022/05/10 16:24:14;;;;;;;10.88;3.90;;;;;;;;;;4859908;29;20474;-62
2022/05/10 16:32:09;;;;;;;10.35;5.82;;;;;;;;;;4860642;29;20044;-63
2022/05/10 16:34:36;;;;;;;9.75;5.20;;;;;;;;;;4868710;29;20040;-62
2022/05/10 16:37:02;;;;;;;14.65;4.88;;;;;;;;;;4877841;29;20040;-62
2022/05/10 16:39:29;;;;;;;11.15;5.15;;;;;;;;;;4876497;29;20044;-63
2022/05/10 16:41:55;;;;;;;12.82;5.32;;;;;;;;;;4858804;29;20152;-62
2022/05/10 16:44:21;;;;;;;12.65;6.30;;;;;;;;;;4874201;29;20025;-62
2022/05/10 16:46:47;;;;;;;14.38;5.00;;;;;;;;;;4877674;29;20389;-62
2022/05/10 16:49:13;;;;;;;15.73;5.10;;;;;;;;;;4877951;29;20047;-62
2022/05/10 16:51:41;;;;;;;14.75;5.32;;;;;;;;;;4877782;29;20446;-62
2022/05/10 16:54:16;;;;;;;16.02;5.25;;;;;;;;;;4877958;29;20029;-63
2022/05/10 16:56:43;;;;;;;12.48;5.20;;;;;;;;;;4864807;29;20045;-63
2022/05/10 16:59:09;;;;;;;16.83;5.40;;;;;;;;;;4859272;29;20504;-61
2022/05/10 17:01:38;;;;;;;13.93;5.47;;;;;;;;;;4859060;29;20037;-63
2022/05/10 17:04:04;;;;;;;11.30;5.18;;;;;;;;;;4858856;29;20022;-67
2022/05/10 17:06:32;;;;;;;8.95;6.13;;;;;;;;;;4859569;29;20030;-63
2022/05/10 17:08:58;;;;;;;13.18;5.85;;;;;;;;;;4877550;29;20041;-62
2022/05/10 17:11:24;;;;;;;18.80;5.38;;;;;;;;;;4872044;29;20108;-60
2022/05/10 17:13:50;;;;;;;12.82;7.28;;;;;;;;;;4858905;29;20517;-61
2022/05/10 17:16:17;;;;;;;10.13;4.40;;;;;;;;;;4858636;29;20034;-60
2022/05/10 17:18:43;;;;;;;12.88;5.40;;;;;;;;;;4858950;29;20030;-62
2022/05/10 17:21:09;;;;;;;13.90;6.85;;;;;;;;;;4858661;29;20045;-62
2022/05/10 17:23:36;;;;;;;12.98;6.60;;;;;;;;;;4862215;29;20504;-63
2022/05/10 17:26:08;;;;;;;15.43;6.85;;;;;;;;;;4891537;29;20029;-61
2022/05/10 17:28:58;;;;;;;12.88;6.03;;;;;;;;;;4878304;29;20041;-64
2022/05/10 17:31:25;;;;;;;12.43;5.78;;;;;;;;;;4859112;29;20411;-64
2022/05/10 17:33:51;;;;;;;11.45;5.95;;;;;;;;;;4858364;29;20025;-62
2022/05/10 17:36:18;;;;;;;12.98;6.53;;;;;;;;;;4859124;29;20521;-66
2022/05/10 17:38:44;;;;;;;10.90;5.45;;;;;;;;;;4858499;29;20030;-63
2022/05/10 17:41:10;;;;;;;20.08;12.98;;;;;;;;;;4858528;29;20061;-65
2022/05/10 17:43:37;;;;;;;16.58;9.13;;;;;;;;;;4858731;29;20026;-63
2022/05/10 17:46:04;;;;;;;9.80;6.43;;;;;;;;;;4858443;29;20112;-63
2022/05/10 17:48:30;;;;;;;13.35;6.53;;;;;;;;;;4858676;29;20030;-61
2022/05/10 17:51:05;;;;;;;14.50;6.57;;;;;;;;;;4858653;29;20029;-62
2022/05/10 17:53:31;;;;;;;14.00;6.90;;;;;;;;;;4857604;29;20029;-61
2022/05/10 17:55:58;;;;;;;15.75;5.78;;;;;;;;;;4857924;29;20045;-61
2022/05/10 17:58:24;;;;;;;15.18;8.50;;;;;;;;;;4858290;29;20398;-64
2022/05/10 18:00:50;;;;;;;13.98;8.40;;;;;;;;;;4868832;29;20056;-60
2022/05/10 18:03:16;;;;;;;12.73;7.68;;;;;;;;;;4876870;29;20017;-66
2022/05/10 18:05:42;;;;;;;13.63;7.22;;;;;;;;;;4877129;29;20035;-63
2022/05/10 18:08:08;;;;;;;17.83;7.07;;;;;;;;;;4876743;29;20044;-62
2022/05/10 18:10:34;;;;;;;15.50;6.75;;;;;;;;;;4877074;29;20036;-63
2022/05/10 18:13:02;;;;;;;13.50;6.03;;;;;;;;;;4866536;29;20026;-62
2022/05/10 18:15:28;;;;;;;16.92;6.13;;;;;;;;;;4866028;29;20028;-62
2022/05/10 18:17:54;;;;;;;13.30;8.02;;;;;;;;;;4867651;29;20385;-64
2022/05/10 18:20:21;;;;;;;11.90;6.47;;;;;;;;;;4866112;29;20065;-62
2022/05/10 18:22:47;;;;;;;11.05;6.20;;;;;;;;;;4865710;29;20124;-65
2022/05/10 18:25:13;;;;;;;10.80;6.35;;;;;;;;;;4867018;29;20534;-63
2022/05/10 18:27:39;;;;;;;18.45;7.93;;;;;;;;;;4865372;29;20037;-65
2022/05/10 18:30:06;;;;;;;13.55;7.57;;;;;;;;;;4866150;29;20108;-62
2022/05/10 18:32:32;;;;;;;14.48;7.10;;;;;;;;;;4866725;29;20040;-61
2022/05/10 18:34:58;;;;;;;15.13;7.97;;;;;;;;;;4865157;29;20034;-61
2022/05/10 18:37:24;;;;;;;15.85;7.70;;;;;;;;;;4865685;29;20029;-63
2022/05/10 18:39:50;;;;;;;14.85;7.70;;;;;;;;;;4869007;29;20037;-61
2022/05/10 18:42:17;;;;;;;15.93;6.95;;;;;;;;;;4868600;29;20029;-61
2022/05/10 18:44:44;;;;;;;13.98;6.25;;;;;;;;;;4869725;29;20029;-64
2022/05/10 18:47:10;;;;;;;20.55;6.40;;;;;;;;;;4867804;29;20382;-65
2022/05/10 18:49:36;;;;;;;18.00;5.95;;;;;;;;;;4864264;29;20036;-67
2022/05/10 18:52:03;;;;;;;14.63;6.47;;;;;;;;;;4879884;29;20430;-64
2022/05/10 18:54:29;;;;;;;15.27;6.63;;;;;;;;;;4879140;29;20064;-64
2022/05/10 18:56:55;;;;;;;12.52;6.93;;;;;;;;;;4879563;29;20771;-71
2022/05/10 18:59:21;;;;;;;13.05;6.30;;;;;;;;;;4879980;29;20164;-63
2022/05/10 19:01:47;;;;;;;13.35;6.65;;;;;;;;;;4876008;29;20040;-65
2022/05/10 19:04:13;;;;;;;12.10;5.72;;;;;;;;;;4878952;29;20127;-68
2022/05/10 19:06:39;;;;;;;12.82;6.00;;;;;;;;;;4880500;29;20033;-67
2022/05/10 19:09:05;;;;;;;18.00;6.75;;;;;;;;;;4879536;29;20884;-67
2022/05/10 19:11:31;;;;;;;18.20;10.10;;;;;;;;;;4879618;29;20041;-68